sensor_id;sensor_type;location;lat;lon;timestamp;P1;durP1;ratioP1;P2;durP2;ratioP2
39032;SDS011;24794;51.982;5.878;2023-08-01T00:00:25;8.30;;;5.60;;
39032;SDS011;24794;51.982;5.878;2023-08-01T00:01:25;11.18;;;6.65;;
39032;SDS011;24794;51.982;5.878;2023-08-01T00:02:26;7.80;;;5.65;;
39032;SDS011;24794;51.982;5.878;2023-08-01T00:03:26;10.13;;;5.88;;
39032;SDS011;24794;51.982;5.878;2023-08-01T00:04:27;9.75;;;5.93;;
39032;SDS011;24794;51.982;5.878;2023-08-01T00:05:27;9.88;;;5.63;;
39032;SDS011;24794;51.982;5.878;2023-08-01T00:06:28;10.80;;;5.93;;
39032;SDS011;24794;51.982;5.878;2023-08-01T00:07:28;10.80;;;5.30;;
39032;SDS011;24794;51.982;5.878;2023-08-01T00:08:29;8.20;;;5.50;;
39032;SDS011;24794;51.982;5.878;2023-08-01T00:09:29;9.60;;;5.95;;
39032;SDS011;24794;51.982;5.878;2023-08-01T00:10:30;8.38;;;4.97;;
39032;SDS011;24794;51.982;5.878;2023-08-01T00:11:30;6.00;;;4.50;;
39032;SDS011;24794;51.982;5.878;2023-08-01T00:12:31;5.70;;;4.15;;
39032;SDS011;24794;51.982;5.878;2023-08-01T00:13:31;7.30;;;4.95;;
39032;SDS011;24794;51.982;5.878;2023-08-01T00:14:32;8.15;;;5.55;;
39032;SDS011;24794;51.982;5.878;2023-08-01T00:15:33;8.02;;;5.18;;
39032;SDS011;24794;51.982;5.878;2023-08-01T00:16:34;6.75;;;4.75;;
39032;SDS011;24794;51.982;5.878;2023-08-01T00:17:34;6.85;;;4.85;;
39032;SDS011;24794;51.982;5.878;2023-08-01T00:18:35;7.05;;;5.10;;
39032;SDS011;24794;51.982;5.878;2023-08-01T00:19:36;6.75;;;4.90;;
39032;SDS011;24794;51.982;5.878;2023-08-01T00:20:37;6.50;;;4.78;;
39032;SDS011;24794;51.982;5.878;2023-08-01T00:21:39;6.82;;;4.30;;
39032;SDS011;24794;51.982;5.878;2023-08-01T00:22:40;8.48;;;4.35;;
39032;SDS011;24794;51.982;5.878;2023-08-01T00:23:40;6.20;;;4.32;;
39032;SDS011;24794;51.982;5.878;2023-08-01T00:24:41;6.60;;;4.13;;
39032;SDS011;24794;51.982;5.878;2023-08-01T00:25:41;4.50;;;3.30;;
39032;SDS011;24794;51.982;5.878;2023-08-01T00:26:42;6.70;;;3.70;;
39032;SDS011;24794;51.982;5.878;2023-08-01T00:27:42;5.53;;;3.20;;
39032;SDS011;24794;51.982;5.878;2023-08-01T00:28:43;6.28;;;3.20;;
39032;SDS011;24794;51.982;5.878;2023-08-01T00:29:43;5.00;;;3.10;;
39032;SDS011;24794;51.982;5.878;2023-08-01T00:30:44;5.63;;;3.47;;
39032;SDS011;24794;51.982;5.878;2023-08-01T00:31:45;6.10;;;3.55;;
39032;SDS011;24794;51.982;5.878;2023-08-01T00:32:45;7.88;;;3.00;;
39032;SDS011;24794;51.982;5.878;2023-08-01T00:33:46;6.25;;;3.00;;
39032;SDS011;24794;51.982;5.878;2023-08-01T00:34:46;5.43;;;3.38;;
39032;SDS011;24794;51.982;5.878;2023-08-01T00:35:53;4.47;;;2.25;;
39032;SDS011;24794;51.982;5.878;2023-08-01T00:36:54;6.70;;;3.03;;
39032;SDS011;24794;51.982;5.878;2023-08-01T00:37:54;4.97;;;2.72;;
39032;SDS011;24794;51.982;5.878;2023-08-01T00:38:55;7.50;;;3.15;;
39032;SDS011;24794;51.982;5.878;2023-08-01T00:39:55;7.13;;;2.88;;
39032;SDS011;24794;51.982;5.878;2023-08-01T00:40:56;6.13;;;2.88;;
39032;SDS011;24794;51.982;5.878;2023-08-01T00:41:56;6.28;;;2.83;;
39032;SDS011;24794;51.982;5.878;2023-08-01T00:42:57;7.10;;;2.97;;
39032;SDS011;24794;51.982;5.878;2023-08-01T00:43:58;6.20;;;3.20;;
39032;SDS011;24794;51.982;5.878;2023-08-01T00:44:59;5.88;;;2.40;;
39032;SDS011;24794;51.982;5.878;2023-08-01T00:46:00;7.63;;;3.13;;
39032;SDS011;24794;51.982;5.878;2023-08-01T00:47:03;5.57;;;2.88;;
39032;SDS011;24794;51.982;5.878;2023-08-01T00:48:04;8.15;;;2.95;;
39032;SDS011;24794;51.982;5.878;2023-08-01T00:49:05;7.32;;;2.78;;
39032;SDS011;24794;51.982;5.878;2023-08-01T00:50:08;6.53;;;3.03;;
39032;SDS011;24794;51.982;5.878;2023-08-01T00:51:09;5.70;;;2.85;;
39032;SDS011;24794;51.982;5.878;2023-08-01T00:52:09;5.82;;;2.97;;
39032;SDS011;24794;51.982;5.878;2023-08-01T00:53:10;9.30;;;3.00;;
39032;SDS011;24794;51.982;5.878;2023-08-01T00:54:12;3.45;;;2.65;;
39032;SDS011;24794;51.982;5.878;2023-08-01T00:55:14;7.22;;;3.00;;
39032;SDS011;24794;51.982;5.878;2023-08-01T00:56:16;5.30;;;2.88;;
39032;SDS011;24794;51.982;5.878;2023-08-01T00:57:17;6.22;;;3.05;;
39032;SDS011;24794;51.982;5.878;2023-08-01T00:58:17;4.45;;;2.80;;
39032;SDS011;24794;51.982;5.878;2023-08-01T00:59:18;4.20;;;2.10;;
39032;SDS011;24794;51.982;5.878;2023-08-01T01:00:18;8.07;;;3.00;;
39032;SDS011;24794;51.982;5.878;2023-08-01T01:01:19;6.28;;;3.05;;
39032;SDS011;24794;51.982;5.878;2023-08-01T01:02:19;5.47;;;3.15;;
39032;SDS011;24794;51.982;5.878;2023-08-01T01:03:20;7.10;;;3.35;;
39032;SDS011;24794;51.982;5.878;2023-08-01T01:04:21;5.47;;;3.00;;
39032;SDS011;24794;51.982;5.878;2023-08-01T01:05:22;4.97;;;3.20;;
39032;SDS011;24794;51.982;5.878;2023-08-01T01:06:30;6.30;;;3.22;;
39032;SDS011;24794;51.982;5.878;2023-08-01T01:07:39;7.40;;;2.95;;
39032;SDS011;24794;51.982;5.878;2023-08-01T01:08:40;7.00;;;3.15;;
39032;SDS011;24794;51.982;5.878;2023-08-01T01:09:41;9.20;;;3.05;;
39032;SDS011;24794;51.982;5.878;2023-08-01T01:10:41;7.50;;;3.00;;
39032;SDS011;24794;51.982;5.878;2023-08-01T01:11:42;7.10;;;2.67;;
39032;SDS011;24794;51.982;5.878;2023-08-01T01:12:43;6.85;;;2.58;;
39032;SDS011;24794;51.982;5.878;2023-08-01T01:13:43;4.88;;;2.78;;
39032;SDS011;24794;51.982;5.878;2023-08-01T01:14:44;7.68;;;2.60;;
39032;SDS011;24794;51.982;5.878;2023-08-01T01:15:44;7.50;;;3.03;;
39032;SDS011;24794;51.982;5.878;2023-08-01T01:16:45;6.63;;;3.45;;
39032;SDS011;24794;51.982;5.878;2023-08-01T01:17:45;6.93;;;3.60;;
39032;SDS011;24794;51.982;5.878;2023-08-01T01:18:46;6.35;;;3.70;;
39032;SDS011;24794;51.982;5.878;2023-08-01T01:19:47;8.07;;;3.40;;
39032;SDS011;24794;51.982;5.878;2023-08-01T01:20:47;6.13;;;3.25;;
39032;SDS011;24794;51.982;5.878;2023-08-01T01:21:47;5.80;;;3.83;;
39032;SDS011;24794;51.982;5.878;2023-08-01T01:22:49;8.18;;;3.85;;
39032;SDS011;24794;51.982;5.878;2023-08-01T01:23:52;7.15;;;3.50;;
39032;SDS011;24794;51.982;5.878;2023-08-01T01:24:53;6.00;;;3.30;;
39032;SDS011;24794;51.982;5.878;2023-08-01T01:25:55;6.15;;;3.33;;
39032;SDS011;24794;51.982;5.878;2023-08-01T01:26:57;4.32;;;3.03;;
39032;SDS011;24794;51.982;5.878;2023-08-01T01:28:01;5.35;;;3.05;;
39032;SDS011;24794;51.982;5.878;2023-08-01T01:29:04;8.95;;;3.83;;
39032;SDS011;24794;51.982;5.878;2023-08-01T01:30:06;7.22;;;4.18;;
39032;SDS011;24794;51.982;5.878;2023-08-01T01:31:07;9.02;;;4.03;;
39032;SDS011;24794;51.982;5.878;2023-08-01T01:32:07;9.68;;;4.38;;
39032;SDS011;24794;51.982;5.878;2023-08-01T01:33:09;7.50;;;4.50;;
39032;SDS011;24794;51.982;5.878;2023-08-01T01:34:10;8.93;;;4.30;;
39032;SDS011;24794;51.982;5.878;2023-08-01T01:35:11;8.18;;;4.25;;
39032;SDS011;24794;51.982;5.878;2023-08-01T01:36:11;6.88;;;4.00;;
39032;SDS011;24794;51.982;5.878;2023-08-01T01:37:12;7.80;;;4.38;;
39032;SDS011;24794;51.982;5.878;2023-08-01T01:38:12;8.38;;;5.00;;
39032;SDS011;24794;51.982;5.878;2023-08-01T01:39:13;11.07;;;4.95;;
39032;SDS011;24794;51.982;5.878;2023-08-01T01:40:13;7.80;;;4.60;;
39032;SDS011;24794;51.982;5.878;2023-08-01T01:41:14;8.73;;;4.88;;
39032;SDS011;24794;51.982;5.878;2023-08-01T01:42:14;5.82;;;4.30;;
39032;SDS011;24794;51.982;5.878;2023-08-01T01:43:15;7.47;;;5.07;;
39032;SDS011;24794;51.982;5.878;2023-08-01T01:44:16;9.25;;;5.38;;
39032;SDS011;24794;51.982;5.878;2023-08-01T01:45:16;7.95;;;5.32;;
39032;SDS011;24794;51.982;5.878;2023-08-01T01:46:17;9.95;;;5.30;;
39032;SDS011;24794;51.982;5.878;2023-08-01T01:47:17;7.13;;;4.88;;
39032;SDS011;24794;51.982;5.878;2023-08-01T01:48:18;9.77;;;4.85;;
39032;SDS011;24794;51.982;5.878;2023-08-01T01:49:18;10.40;;;5.07;;
39032;SDS011;24794;51.982;5.878;2023-08-01T01:50:19;10.27;;;5.43;;
39032;SDS011;24794;51.982;5.878;2023-08-01T01:51:20;12.07;;;5.32;;
39032;SDS011;24794;51.982;5.878;2023-08-01T01:52:21;11.18;;;4.95;;
39032;SDS011;24794;51.982;5.878;2023-08-01T01:53:22;11.25;;;5.75;;
39032;SDS011;24794;51.982;5.878;2023-08-01T01:54:22;8.80;;;5.30;;
39032;SDS011;24794;51.982;5.878;2023-08-01T01:55:23;12.20;;;5.18;;
39032;SDS011;24794;51.982;5.878;2023-08-01T01:56:23;6.80;;;5.00;;
39032;SDS011;24794;51.982;5.878;2023-08-01T01:57:24;7.60;;;4.88;;
39032;SDS011;24794;51.982;5.878;2023-08-01T01:58:24;7.85;;;4.90;;
39032;SDS011;24794;51.982;5.878;2023-08-01T01:59:25;11.75;;;5.63;;
39032;SDS011;24794;51.982;5.878;2023-08-01T02:00:25;12.98;;;5.25;;
39032;SDS011;24794;51.982;5.878;2023-08-01T02:01:26;8.93;;;5.13;;
39032;SDS011;24794;51.982;5.878;2023-08-01T02:02:26;8.27;;;4.88;;
39032;SDS011;24794;51.982;5.878;2023-08-01T02:03:27;9.57;;;5.00;;
39032;SDS011;24794;51.982;5.878;2023-08-01T02:04:28;10.95;;;5.35;;
39032;SDS011;24794;51.982;5.878;2023-08-01T02:05:29;11.93;;;5.55;;
39032;SDS011;24794;51.982;5.878;2023-08-01T02:06:30;10.13;;;5.88;;
39032;SDS011;24794;51.982;5.878;2023-08-01T02:07:30;11.52;;;5.60;;
39032;SDS011;24794;51.982;5.878;2023-08-01T02:08:31;6.53;;;5.00;;
39032;SDS011;24794;51.982;5.878;2023-08-01T02:09:33;9.15;;;4.90;;
39032;SDS011;24794;51.982;5.878;2023-08-01T02:10:33;11.27;;;5.15;;
39032;SDS011;24794;51.982;5.878;2023-08-01T02:11:34;9.55;;;5.28;;
39032;SDS011;24794;51.982;5.878;2023-08-01T02:12:34;9.88;;;5.22;;
39032;SDS011;24794;51.982;5.878;2023-08-01T02:13:35;9.75;;;5.10;;
39032;SDS011;24794;51.982;5.878;2023-08-01T02:14:36;7.47;;;4.85;;
39032;SDS011;24794;51.982;5.878;2023-08-01T02:15:36;9.68;;;5.15;;
39032;SDS011;24794;51.982;5.878;2023-08-01T02:16:37;10.45;;;5.53;;
39032;SDS011;24794;51.982;5.878;2023-08-01T02:17:37;8.30;;;4.90;;
39032;SDS011;24794;51.982;5.878;2023-08-01T02:18:38;12.43;;;5.35;;
39032;SDS011;24794;51.982;5.878;2023-08-01T02:19:39;10.35;;;5.55;;
39032;SDS011;24794;51.982;5.878;2023-08-01T02:20:39;13.18;;;5.97;;
39032;SDS011;24794;51.982;5.878;2023-08-01T02:21:40;10.18;;;5.50;;
39032;SDS011;24794;51.982;5.878;2023-08-01T02:22:41;8.90;;;4.90;;
39032;SDS011;24794;51.982;5.878;2023-08-01T02:23:41;11.90;;;5.40;;
39032;SDS011;24794;51.982;5.878;2023-08-01T02:24:42;12.48;;;5.25;;
39032;SDS011;24794;51.982;5.878;2023-08-01T02:25:42;12.13;;;5.85;;
39032;SDS011;24794;51.982;5.878;2023-08-01T02:26:43;11.38;;;5.20;;
39032;SDS011;24794;51.982;5.878;2023-08-01T02:27:44;11.55;;;5.88;;
39032;SDS011;24794;51.982;5.878;2023-08-01T02:28:44;9.95;;;5.45;;
39032;SDS011;24794;51.982;5.878;2023-08-01T02:29:44;12.23;;;5.75;;
39032;SDS011;24794;51.982;5.878;2023-08-01T02:30:45;14.13;;;5.88;;
39032;SDS011;24794;51.982;5.878;2023-08-01T02:31:46;14.57;;;5.13;;
39032;SDS011;24794;51.982;5.878;2023-08-01T02:32:46;12.95;;;5.15;;
39032;SDS011;24794;51.982;5.878;2023-08-01T02:33:47;9.35;;;4.80;;
39032;SDS011;24794;51.982;5.878;2023-08-01T02:34:47;8.50;;;4.90;;
39032;SDS011;24794;51.982;5.878;2023-08-01T02:35:48;10.43;;;4.80;;
39032;SDS011;24794;51.982;5.878;2023-08-01T02:36:48;11.02;;;5.20;;
39032;SDS011;24794;51.982;5.878;2023-08-01T02:37:49;13.95;;;4.90;;
39032;SDS011;24794;51.982;5.878;2023-08-01T02:38:49;10.18;;;5.30;;
39032;SDS011;24794;51.982;5.878;2023-08-01T02:39:50;10.60;;;5.13;;
39032;SDS011;24794;51.982;5.878;2023-08-01T02:40:50;11.25;;;4.80;;
39032;SDS011;24794;51.982;5.878;2023-08-01T02:41:51;15.18;;;5.45;;
39032;SDS011;24794;51.982;5.878;2023-08-01T02:42:51;9.20;;;4.80;;
39032;SDS011;24794;51.982;5.878;2023-08-01T02:43:52;11.88;;;5.00;;
39032;SDS011;24794;51.982;5.878;2023-08-01T02:44:52;11.25;;;4.93;;
39032;SDS011;24794;51.982;5.878;2023-08-01T02:45:53;10.13;;;4.82;;
39032;SDS011;24794;51.982;5.878;2023-08-01T02:46:53;12.23;;;5.90;;
39032;SDS011;24794;51.982;5.878;2023-08-01T02:47:54;12.05;;;5.38;;
39032;SDS011;24794;51.982;5.878;2023-08-01T02:48:55;15.15;;;5.20;;
39032;SDS011;24794;51.982;5.878;2023-08-01T02:49:55;12.25;;;4.72;;
39032;SDS011;24794;51.982;5.878;2023-08-01T02:50:56;15.07;;;5.63;;
39032;SDS011;24794;51.982;5.878;2023-08-01T02:51:56;13.70;;;5.28;;
39032;SDS011;24794;51.982;5.878;2023-08-01T02:52:57;10.90;;;4.90;;
39032;SDS011;24794;51.982;5.878;2023-08-01T02:53:57;10.00;;;4.95;;
39032;SDS011;24794;51.982;5.878;2023-08-01T02:54:58;11.07;;;4.80;;
39032;SDS011;24794;51.982;5.878;2023-08-01T02:55:58;12.00;;;5.10;;
39032;SDS011;24794;51.982;5.878;2023-08-01T02:56:59;12.05;;;5.38;;
39032;SDS011;24794;51.982;5.878;2023-08-01T02:57:59;13.00;;;5.38;;
39032;SDS011;24794;51.982;5.878;2023-08-01T02:59:00;10.10;;;4.70;;
39032;SDS011;24794;51.982;5.878;2023-08-01T03:00:00;10.30;;;4.80;;
39032;SDS011;24794;51.982;5.878;2023-08-01T03:01:08;14.15;;;5.80;;
39032;SDS011;24794;51.982;5.878;2023-08-01T03:02:13;14.73;;;5.20;;
39032;SDS011;24794;51.982;5.878;2023-08-01T03:03:13;17.80;;;5.93;;
39032;SDS011;24794;51.982;5.878;2023-08-01T03:04:14;16.02;;;5.15;;
39032;SDS011;24794;51.982;5.878;2023-08-01T03:05:14;13.25;;;5.32;;
39032;SDS011;24794;51.982;5.878;2023-08-01T03:06:15;13.50;;;5.30;;
39032;SDS011;24794;51.982;5.878;2023-08-01T03:07:16;13.65;;;5.82;;
39032;SDS011;24794;51.982;5.878;2023-08-01T03:08:16;13.68;;;5.43;;
39032;SDS011;24794;51.982;5.878;2023-08-01T03:09:17;15.38;;;5.63;;
39032;SDS011;24794;51.982;5.878;2023-08-01T03:10:17;11.35;;;5.20;;
39032;SDS011;24794;51.982;5.878;2023-08-01T03:11:18;15.93;;;5.45;;
39032;SDS011;24794;51.982;5.878;2023-08-01T03:12:19;15.07;;;5.72;;
39032;SDS011;24794;51.982;5.878;2023-08-01T03:13:19;13.70;;;5.50;;
39032;SDS011;24794;51.982;5.878;2023-08-01T03:14:20;19.55;;;6.45;;
39032;SDS011;24794;51.982;5.878;2023-08-01T03:15:20;15.15;;;5.55;;
39032;SDS011;24794;51.982;5.878;2023-08-01T03:16:21;11.48;;;5.55;;
39032;SDS011;24794;51.982;5.878;2023-08-01T03:17:21;10.50;;;5.32;;
39032;SDS011;24794;51.982;5.878;2023-08-01T03:18:22;12.10;;;5.07;;
39032;SDS011;24794;51.982;5.878;2023-08-01T03:19:22;11.30;;;5.57;;
39032;SDS011;24794;51.982;5.878;2023-08-01T03:20:24;11.00;;;5.07;;
39032;SDS011;24794;51.982;5.878;2023-08-01T03:21:24;19.55;;;6.88;;
39032;SDS011;24794;51.982;5.878;2023-08-01T03:22:26;16.17;;;5.70;;
39032;SDS011;24794;51.982;5.878;2023-08-01T03:23:27;14.38;;;5.95;;
39032;SDS011;24794;51.982;5.878;2023-08-01T03:24:27;15.68;;;5.97;;
39032;SDS011;24794;51.982;5.878;2023-08-01T03:25:28;13.43;;;5.93;;
39032;SDS011;24794;51.982;5.878;2023-08-01T03:26:28;12.18;;;5.43;;
39032;SDS011;24794;51.982;5.878;2023-08-01T03:27:29;11.18;;;5.57;;
39032;SDS011;24794;51.982;5.878;2023-08-01T03:28:29;14.95;;;5.72;;
39032;SDS011;24794;51.982;5.878;2023-08-01T03:29:30;15.70;;;6.55;;
39032;SDS011;24794;51.982;5.878;2023-08-01T03:30:31;20.05;;;6.50;;
39032;SDS011;24794;51.982;5.878;2023-08-01T03:31:32;14.82;;;7.00;;
39032;SDS011;24794;51.982;5.878;2023-08-01T03:32:33;19.42;;;6.00;;
39032;SDS011;24794;51.982;5.878;2023-08-01T03:33:33;11.07;;;5.45;;
39032;SDS011;24794;51.982;5.878;2023-08-01T03:34:34;17.70;;;6.00;;
39032;SDS011;24794;51.982;5.878;2023-08-01T03:35:34;21.15;;;7.45;;
39032;SDS011;24794;51.982;5.878;2023-08-01T03:36:35;12.27;;;6.03;;
39032;SDS011;24794;51.982;5.878;2023-08-01T03:37:35;15.25;;;5.80;;
39032;SDS011;24794;51.982;5.878;2023-08-01T03:38:36;13.32;;;5.97;;
39032;SDS011;24794;51.982;5.878;2023-08-01T03:39:36;15.05;;;6.03;;
39032;SDS011;24794;51.982;5.878;2023-08-01T03:40:37;22.98;;;7.18;;
39032;SDS011;24794;51.982;5.878;2023-08-01T03:41:38;17.25;;;7.20;;
39032;SDS011;24794;51.982;5.878;2023-08-01T03:42:38;14.98;;;6.78;;
39032;SDS011;24794;51.982;5.878;2023-08-01T03:43:40;18.55;;;7.18;;
39032;SDS011;24794;51.982;5.878;2023-08-01T03:44:40;19.55;;;6.60;;
39032;SDS011;24794;51.982;5.878;2023-08-01T03:45:41;16.25;;;7.47;;
39032;SDS011;24794;51.982;5.878;2023-08-01T03:46:41;13.85;;;6.68;;
39032;SDS011;24794;51.982;5.878;2023-08-01T03:47:42;19.02;;;7.90;;
39032;SDS011;24794;51.982;5.878;2023-08-01T03:48:43;20.35;;;7.20;;
39032;SDS011;24794;51.982;5.878;2023-08-01T03:49:43;16.88;;;6.57;;
39032;SDS011;24794;51.982;5.878;2023-08-01T03:50:44;12.98;;;6.82;;
39032;SDS011;24794;51.982;5.878;2023-08-01T03:51:44;16.40;;;6.80;;
39032;SDS011;24794;51.982;5.878;2023-08-01T03:52:45;19.17;;;7.32;;
39032;SDS011;24794;51.982;5.878;2023-08-01T03:53:45;15.73;;;7.05;;
39032;SDS011;24794;51.982;5.878;2023-08-01T03:54:46;18.85;;;7.40;;
39032;SDS011;24794;51.982;5.878;2023-08-01T03:55:48;19.85;;;7.20;;
39032;SDS011;24794;51.982;5.878;2023-08-01T03:56:49;19.20;;;7.07;;
39032;SDS011;24794;51.982;5.878;2023-08-01T03:57:49;21.00;;;7.35;;
39032;SDS011;24794;51.982;5.878;2023-08-01T03:58:49;23.50;;;7.63;;
39032;SDS011;24794;51.982;5.878;2023-08-01T03:59:50;20.85;;;7.00;;
39032;SDS011;24794;51.982;5.878;2023-08-01T04:00:50;22.90;;;7.60;;
39032;SDS011;24794;51.982;5.878;2023-08-01T04:01:51;19.70;;;6.82;;
39032;SDS011;24794;51.982;5.878;2023-08-01T04:02:52;13.15;;;5.85;;
39032;SDS011;24794;51.982;5.878;2023-08-01T04:03:52;20.05;;;6.35;;
39032;SDS011;24794;51.982;5.878;2023-08-01T04:04:53;14.13;;;5.85;;
39032;SDS011;24794;51.982;5.878;2023-08-01T04:05:53;19.08;;;6.68;;
39032;SDS011;24794;51.982;5.878;2023-08-01T04:06:54;17.60;;;6.35;;
39032;SDS011;24794;51.982;5.878;2023-08-01T04:07:54;15.98;;;6.75;;
39032;SDS011;24794;51.982;5.878;2023-08-01T04:08:55;19.80;;;6.60;;
39032;SDS011;24794;51.982;5.878;2023-08-01T04:09:56;16.60;;;6.35;;
39032;SDS011;24794;51.982;5.878;2023-08-01T04:10:57;13.00;;;5.85;;
39032;SDS011;24794;51.982;5.878;2023-08-01T04:11:57;15.93;;;6.03;;
39032;SDS011;24794;51.982;5.878;2023-08-01T04:12:58;17.80;;;5.53;;
39032;SDS011;24794;51.982;5.878;2023-08-01T04:13:58;17.55;;;6.43;;
39032;SDS011;24794;51.982;5.878;2023-08-01T04:14:59;19.05;;;6.78;;
39032;SDS011;24794;51.982;5.878;2023-08-01T04:16:00;21.95;;;6.30;;
39032;SDS011;24794;51.982;5.878;2023-08-01T04:17:01;19.42;;;6.38;;
39032;SDS011;24794;51.982;5.878;2023-08-01T04:18:01;25.33;;;7.32;;
39032;SDS011;24794;51.982;5.878;2023-08-01T04:19:02;14.50;;;6.05;;
39032;SDS011;24794;51.982;5.878;2023-08-01T04:20:02;17.67;;;6.75;;
39032;SDS011;24794;51.982;5.878;2023-08-01T04:21:03;17.02;;;6.00;;
39032;SDS011;24794;51.982;5.878;2023-08-01T04:22:03;16.67;;;6.63;;
39032;SDS011;24794;51.982;5.878;2023-08-01T04:23:04;18.98;;;5.85;;
39032;SDS011;24794;51.982;5.878;2023-08-01T04:24:05;18.25;;;6.22;;
39032;SDS011;24794;51.982;5.878;2023-08-01T04:25:05;14.45;;;6.10;;
39032;SDS011;24794;51.982;5.878;2023-08-01T04:26:06;17.33;;;6.20;;
39032;SDS011;24794;51.982;5.878;2023-08-01T04:27:07;23.83;;;6.20;;
39032;SDS011;24794;51.982;5.878;2023-08-01T04:28:07;18.70;;;6.55;;
39032;SDS011;24794;51.982;5.878;2023-08-01T04:29:08;19.25;;;6.63;;
39032;SDS011;24794;51.982;5.878;2023-08-01T04:30:08;15.98;;;6.03;;
39032;SDS011;24794;51.982;5.878;2023-08-01T04:31:09;15.40;;;5.63;;
39032;SDS011;24794;51.982;5.878;2023-08-01T04:32:10;16.75;;;5.90;;
39032;SDS011;24794;51.982;5.878;2023-08-01T04:33:13;14.68;;;5.93;;
39032;SDS011;24794;51.982;5.878;2023-08-01T04:34:14;21.38;;;6.13;;
39032;SDS011;24794;51.982;5.878;2023-08-01T04:35:14;16.83;;;6.60;;
39032;SDS011;24794;51.982;5.878;2023-08-01T04:36:15;16.23;;;6.00;;
39032;SDS011;24794;51.982;5.878;2023-08-01T04:37:15;18.58;;;5.95;;
39032;SDS011;24794;51.982;5.878;2023-08-01T04:38:16;15.23;;;6.05;;
39032;SDS011;24794;51.982;5.878;2023-08-01T04:39:17;18.98;;;6.32;;
39032;SDS011;24794;51.982;5.878;2023-08-01T04:40:17;18.30;;;5.90;;
39032;SDS011;24794;51.982;5.878;2023-08-01T04:41:18;17.55;;;5.82;;
39032;SDS011;24794;51.982;5.878;2023-08-01T04:42:18;14.98;;;5.60;;
39032;SDS011;24794;51.982;5.878;2023-08-01T04:43:19;18.95;;;6.55;;
39032;SDS011;24794;51.982;5.878;2023-08-01T04:44:19;18.58;;;6.18;;
39032;SDS011;24794;51.982;5.878;2023-08-01T04:45:20;18.30;;;6.18;;
39032;SDS011;24794;51.982;5.878;2023-08-01T04:46:20;17.58;;;6.15;;
39032;SDS011;24794;51.982;5.878;2023-08-01T04:47:21;19.50;;;6.15;;
39032;SDS011;24794;51.982;5.878;2023-08-01T04:48:21;15.05;;;6.25;;
39032;SDS011;24794;51.982;5.878;2023-08-01T04:49:22;14.80;;;5.60;;
39032;SDS011;24794;51.982;5.878;2023-08-01T04:50:24;14.75;;;5.68;;
39032;SDS011;24794;51.982;5.878;2023-08-01T04:51:24;14.45;;;5.82;;
39032;SDS011;24794;51.982;5.878;2023-08-01T04:52:25;17.55;;;6.53;;
39032;SDS011;24794;51.982;5.878;2023-08-01T04:53:25;16.80;;;5.65;;
39032;SDS011;24794;51.982;5.878;2023-08-01T04:54:26;12.98;;;5.50;;
39032;SDS011;24794;51.982;5.878;2023-08-01T04:55:26;12.65;;;5.55;;
39032;SDS011;24794;51.982;5.878;2023-08-01T04:56:27;24.15;;;5.65;;
39032;SDS011;24794;51.982;5.878;2023-08-01T04:57:28;14.98;;;5.40;;
39032;SDS011;24794;51.982;5.878;2023-08-01T04:58:28;22.83;;;6.00;;
39032;SDS011;24794;51.982;5.878;2023-08-01T04:59:30;14.20;;;6.07;;
39032;SDS011;24794;51.982;5.878;2023-08-01T05:00:31;15.63;;;5.47;;
39032;SDS011;24794;51.982;5.878;2023-08-01T05:01:31;15.25;;;6.03;;
39032;SDS011;24794;51.982;5.878;2023-08-01T05:02:32;21.92;;;6.80;;
39032;SDS011;24794;51.982;5.878;2023-08-01T05:03:32;13.65;;;5.35;;
39032;SDS011;24794;51.982;5.878;2023-08-01T05:04:33;20.67;;;6.43;;
39032;SDS011;24794;51.982;5.878;2023-08-01T05:05:33;15.25;;;5.78;;
39032;SDS011;24794;51.982;5.878;2023-08-01T05:06:34;14.77;;;6.50;;
39032;SDS011;24794;51.982;5.878;2023-08-01T05:07:34;17.52;;;5.43;;
39032;SDS011;24794;51.982;5.878;2023-08-01T05:08:35;16.73;;;5.80;;
39032;SDS011;24794;51.982;5.878;2023-08-01T05:09:35;15.38;;;5.85;;
39032;SDS011;24794;51.982;5.878;2023-08-01T05:10:36;21.15;;;6.22;;
39032;SDS011;24794;51.982;5.878;2023-08-01T05:11:36;18.15;;;6.50;;
39032;SDS011;24794;51.982;5.878;2023-08-01T05:12:37;18.70;;;5.88;;
39032;SDS011;24794;51.982;5.878;2023-08-01T05:13:37;17.20;;;6.03;;
39032;SDS011;24794;51.982;5.878;2023-08-01T05:14:38;16.70;;;6.05;;
39032;SDS011;24794;51.982;5.878;2023-08-01T05:15:38;16.23;;;5.95;;
39032;SDS011;24794;51.982;5.878;2023-08-01T05:16:39;15.38;;;5.38;;
39032;SDS011;24794;51.982;5.878;2023-08-01T05:17:40;17.95;;;6.00;;
39032;SDS011;24794;51.982;5.878;2023-08-01T05:18:40;16.55;;;5.50;;
39032;SDS011;24794;51.982;5.878;2023-08-01T05:19:41;18.58;;;5.40;;
39032;SDS011;24794;51.982;5.878;2023-08-01T05:20:41;14.05;;;5.63;;
39032;SDS011;24794;51.982;5.878;2023-08-01T05:21:42;14.27;;;5.40;;
39032;SDS011;24794;51.982;5.878;2023-08-01T05:22:42;14.93;;;5.60;;
39032;SDS011;24794;51.982;5.878;2023-08-01T05:23:43;18.50;;;6.20;;
39032;SDS011;24794;51.982;5.878;2023-08-01T05:24:43;18.15;;;5.97;;
39032;SDS011;24794;51.982;5.878;2023-08-01T05:25:44;17.08;;;5.85;;
39032;SDS011;24794;51.982;5.878;2023-08-01T05:26:45;13.25;;;6.00;;
39032;SDS011;24794;51.982;5.878;2023-08-01T05:27:45;14.82;;;6.00;;
39032;SDS011;24794;51.982;5.878;2023-08-01T05:28:46;24.02;;;6.57;;
39032;SDS011;24794;51.982;5.878;2023-08-01T05:29:46;15.73;;;6.00;;
39032;SDS011;24794;51.982;5.878;2023-08-01T05:30:47;15.70;;;5.70;;
39032;SDS011;24794;51.982;5.878;2023-08-01T05:31:47;16.13;;;6.38;;
39032;SDS011;24794;51.982;5.878;2023-08-01T05:32:48;16.92;;;5.78;;
39032;SDS011;24794;51.982;5.878;2023-08-01T05:33:48;18.38;;;6.40;;
39032;SDS011;24794;51.982;5.878;2023-08-01T05:34:49;15.20;;;5.70;;
39032;SDS011;24794;51.982;5.878;2023-08-01T05:35:49;17.85;;;6.45;;
39032;SDS011;24794;51.982;5.878;2023-08-01T05:36:50;19.65;;;6.28;;
39032;SDS011;24794;51.982;5.878;2023-08-01T05:37:50;12.23;;;6.20;;
39032;SDS011;24794;51.982;5.878;2023-08-01T05:38:51;13.30;;;5.68;;
39032;SDS011;24794;51.982;5.878;2023-08-01T05:39:51;14.98;;;5.70;;
39032;SDS011;24794;51.982;5.878;2023-08-01T05:40:52;15.57;;;5.80;;
39032;SDS011;24794;51.982;5.878;2023-08-01T05:41:53;15.18;;;5.78;;
39032;SDS011;24794;51.982;5.878;2023-08-01T05:42:53;17.52;;;5.80;;
39032;SDS011;24794;51.982;5.878;2023-08-01T05:43:54;15.23;;;5.68;;
39032;SDS011;24794;51.982;5.878;2023-08-01T05:44:54;19.95;;;6.18;;
39032;SDS011;24794;51.982;5.878;2023-08-01T05:45:55;15.40;;;5.78;;
39032;SDS011;24794;51.982;5.878;2023-08-01T05:46:55;17.80;;;6.20;;
39032;SDS011;24794;51.982;5.878;2023-08-01T05:47:56;19.38;;;6.22;;
39032;SDS011;24794;51.982;5.878;2023-08-01T05:48:56;19.02;;;6.22;;
39032;SDS011;24794;51.982;5.878;2023-08-01T05:49:57;14.55;;;5.78;;
39032;SDS011;24794;51.982;5.878;2023-08-01T05:50:57;18.55;;;5.50;;
39032;SDS011;24794;51.982;5.878;2023-08-01T05:51:58;16.55;;;6.45;;
39032;SDS011;24794;51.982;5.878;2023-08-01T05:52:58;14.50;;;5.90;;
39032;SDS011;24794;51.982;5.878;2023-08-01T05:53:59;18.30;;;5.82;;
39032;SDS011;24794;51.982;5.878;2023-08-01T05:54:59;17.20;;;6.75;;
39032;SDS011;24794;51.982;5.878;2023-08-01T05:56:00;14.38;;;6.38;;
39032;SDS011;24794;51.982;5.878;2023-08-01T05:57:00;14.82;;;6.47;;
39032;SDS011;24794;51.982;5.878;2023-08-01T05:58:01;18.98;;;6.82;;
39032;SDS011;24794;51.982;5.878;2023-08-01T05:59:02;16.08;;;6.20;;
39032;SDS011;24794;51.982;5.878;2023-08-01T06:00:03;14.73;;;5.82;;
39032;SDS011;24794;51.982;5.878;2023-08-01T06:01:05;15.82;;;6.30;;
39032;SDS011;24794;51.982;5.878;2023-08-01T06:02:05;18.30;;;6.18;;